createdAt,value
2019-04-14T00:00:16.867Z,5.2
2019-04-14T00:01:06.940Z,5.2
2019-04-14T00:01:57.108Z,5.2
2019-04-14T00:02:46.862Z,5.2
2019-04-14T00:03:36.838Z,5.2
2019-04-14T00:04:27.401Z,5.2
2019-04-14T00:05:17.506Z,5.2
2019-04-14T00:06:07.448Z,5.3
2019-04-14T00:06:57.424Z,5.3
2019-04-14T00:07:47.650Z,5.2
2019-04-14T00:08:37.396Z,5.3
2019-04-14T00:09:27.485Z,5.3
2019-04-14T00:10:18.686Z,5.3
2019-04-14T00:11:08.507Z,5.3
2019-04-14T00:11:58.949Z,5.3
2019-04-14T00:12:49.123Z,5.3
2019-04-14T00:13:39.160Z,5.3
2019-04-14T00:14:29.260Z,5.3
2019-04-14T00:15:47.334Z,5.3
2019-04-14T00:16:12.750Z,5.3
2019-04-14T00:17:04.163Z,5.3
2019-04-14T00:17:53.008Z,5.3
2019-04-14T00:18:43.130Z,5.3
2019-04-14T00:19:33.240Z,5.3
2019-04-14T00:20:22.818Z,5.3
2019-04-14T00:21:13.476Z,5.3
2019-04-14T00:22:03.670Z,5.3
2019-04-14T00:22:53.582Z,5.3
2019-04-14T00:23:43.953Z,5.3
2019-04-14T00:24:34.039Z,5.3
2019-04-14T00:25:24.250Z,5.3
2019-04-14T00:26:14.022Z,5.3
2019-04-14T00:27:04.712Z,5.3
2019-04-14T00:27:54.830Z,5.3
2019-04-14T00:28:44.452Z,5.3
2019-04-14T00:29:34.931Z,5.4
2019-04-14T00:30:25.059Z,5.3
2019-04-14T00:31:14.996Z,5.3
2019-04-14T00:32:05.065Z,5.4
2019-04-14T00:32:55.139Z,5.4
2019-04-14T00:33:45.286Z,5.4
2019-04-14T00:34:35.207Z,5.4
2019-04-14T00:35:24.127Z,5.4
2019-04-14T00:36:13.999Z,5.3
2019-04-14T00:37:05.480Z,5.4
2019-04-14T00:37:54.093Z,5.4
2019-04-14T00:38:45.516Z,5.4
2019-04-14T00:39:33.906Z,5.4
2019-04-14T00:40:26.863Z,5.4
2019-04-14T00:41:14.458Z,5.4
2019-04-14T00:42:15.033Z,5.4
2019-04-14T00:43:05.387Z,5.4
2019-04-14T00:43:55.379Z,5.4
2019-04-14T00:44:45.684Z,5.4
2019-04-14T00:45:59.378Z,5.4
2019-04-14T00:46:25.901Z,5.4
2019-04-14T00:47:15.735Z,5.4
2019-04-14T00:48:20.971Z,5.4
2019-04-14T00:48:55.944Z,5.4
2019-04-14T00:49:46.141Z,5.4
2019-04-14T00:50:34.844Z,5.4
2019-04-14T00:51:24.996Z,5.4
2019-04-14T00:52:15.095Z,5.4
2019-04-14T00:53:05.960Z,5.4
2019-04-14T00:53:56.222Z,5.4
2019-04-14T00:54:45.821Z,5.4
2019-04-14T00:55:35.728Z,5.4
2019-04-14T00:56:25.827Z,5.3
2019-04-14T00:57:16.350Z,5.4
2019-04-14T00:58:05.956Z,5.3
2019-04-14T00:58:56.332Z,5.3
2019-04-14T00:59:46.836Z,5.3
2019-04-14T01:00:36.918Z,5.4
2019-04-14T01:01:27.030Z,5.3
2019-04-14T01:02:17.150Z,5.3
2019-04-14T01:03:07.403Z,5.3
2019-04-14T01:03:55.526Z,5.3
2019-04-14T01:04:46.902Z,5.3
2019-04-14T01:05:37.918Z,5.3
2019-04-14T01:06:27.188Z,5.3
2019-04-14T01:07:17.230Z,5.3
2019-04-14T01:08:07.252Z,5.3
2019-04-14T01:08:57.451Z,5.3
2019-04-14T01:09:46.850Z,5.3
2019-04-14T01:10:36.778Z,5.3
2019-04-14T01:11:27.560Z,5.3
2019-04-14T01:12:17.544Z,5.2
2019-04-14T01:13:14.197Z,5.2
2019-04-14T01:13:57.627Z,5.2
2019-04-14T01:14:47.872Z,5.2
2019-04-14T01:16:15.265Z,5.1
2019-04-14T01:16:47.249Z,5.1
2019-04-14T01:17:37.119Z,5.1
2019-04-14T01:18:27.550Z,5.1
2019-04-14T01:19:16.019Z,5.1
2019-04-14T01:20:06.172Z,5.1
2019-04-14T01:20:57.744Z,5.1
2019-04-14T01:21:46.394Z,5.1
2019-04-14T01:22:36.402Z,5.1
2019-04-14T01:23:26.584Z,5
2019-04-14T01:24:16.838Z,5.1
2019-04-14T01:25:06.916Z,5.1
2019-04-14T01:25:56.976Z,5
2019-04-14T01:26:46.839Z,5
2019-04-14T01:27:36.551Z,5
2019-04-14T01:28:26.564Z,5
2019-04-14T01:29:16.563Z,4.9
2019-04-14T01:30:06.903Z,4.9
2019-04-14T01:30:56.839Z,5
2019-04-14T01:31:47.018Z,4.9
2019-04-14T01:32:37.715Z,4.9
2019-04-14T01:33:27.462Z,4.9
2019-04-14T01:34:17.786Z,4.9
2019-04-14T01:35:07.722Z,4.9
2019-04-14T01:35:57.882Z,4.9
2019-04-14T01:36:47.480Z,4.9
2019-04-14T01:37:38.066Z,4.9
2019-04-14T01:38:28.069Z,4.9
2019-04-14T01:39:17.842Z,4.9
2019-04-14T01:40:07.701Z,4.9
2019-04-14T01:40:58.253Z,4.9
2019-04-14T01:41:47.770Z,4.9
2019-04-14T01:42:38.210Z,4.9
2019-04-14T01:43:27.978Z,4.8
2019-04-14T01:44:18.248Z,4.8
2019-04-14T01:45:07.925Z,4.8
2019-04-14T01:46:28.302Z,4.8
2019-04-14T01:46:59.287Z,4.8
2019-04-14T01:47:48.676Z,4.8
2019-04-14T01:48:38.831Z,4.8
2019-04-14T01:49:29.011Z,4.8
2019-04-14T01:50:19.045Z,4.8
2019-04-14T01:51:09.223Z,4.8
2019-04-14T01:51:57.757Z,4.8
2019-04-14T01:52:48.402Z,4.8
2019-04-14T01:53:38.388Z,4.8
2019-04-14T01:54:28.226Z,4.8
2019-04-14T01:55:18.272Z,4.8
2019-04-14T01:56:07.928Z,4.8
2019-04-14T01:56:58.612Z,4.7
2019-04-14T01:57:48.440Z,4.7
2019-04-14T01:58:38.165Z,4.7
2019-04-14T01:59:28.861Z,4.7
2019-04-14T02:00:18.427Z,4.7
2019-04-14T02:01:08.931Z,4.8
2019-04-14T02:01:59.264Z,4.7
2019-04-14T02:02:48.883Z,4.7
2019-04-14T02:03:38.742Z,4.7
2019-04-14T02:04:29.326Z,4.7
2019-04-14T02:05:19.112Z,4.7
2019-04-14T02:06:09.264Z,4.7
2019-04-14T02:06:59.949Z,4.7
2019-04-14T02:07:49.931Z,4.7
2019-04-14T02:08:39.597Z,4.7
2019-04-14T02:09:29.984Z,4.7
2019-04-14T02:10:19.919Z,4.7
2019-04-14T02:11:09.956Z,4.7
2019-04-14T02:12:00.017Z,4.7
2019-04-14T02:12:50.036Z,4.7
2019-04-14T02:13:39.850Z,4.7
2019-04-14T02:14:30.112Z,4.7
2019-04-14T02:15:20.030Z,4.6
2019-04-14T02:16:47.003Z,4.6
2019-04-14T02:17:28.439Z,4.6
2019-04-14T02:18:18.437Z,4.6
2019-04-14T02:19:08.753Z,4.6
2019-04-14T02:19:58.841Z,4.6
2019-04-14T02:20:48.914Z,4.6
2019-04-14T02:21:38.746Z,4.6
2019-04-14T02:22:27.334Z,4.6
2019-04-14T02:23:19.144Z,4.6
2019-04-14T02:24:09.165Z,4.6
2019-04-14T02:24:59.142Z,4.6
2019-04-14T02:25:49.329Z,4.6
2019-04-14T02:26:39.384Z,4.6
2019-04-14T02:27:28.000Z,4.6
2019-04-14T02:28:18.260Z,4.6
2019-04-14T02:29:07.790Z,4.6
2019-04-14T02:29:58.696Z,4.6
2019-04-14T02:40:07.437Z,4.6
2019-04-14T02:55:08.242Z,4.6
2019-04-14T03:09:41.300Z,4.6
2019-04-14T03:38:18.038Z,4.8
2019-04-14T03:53:05.504Z,4.8
2019-04-14T03:56:31.296Z,4.8
2019-04-14T03:57:21.974Z,4.8
2019-04-14T03:58:15.931Z,4.8
2019-04-14T03:59:00.510Z,4.8
2019-04-14T03:59:52.006Z,4.9
2019-04-14T04:00:42.128Z,4.9
2019-04-14T04:01:30.666Z,4.9
2019-04-14T04:02:20.890Z,4.9
2019-04-14T04:03:10.618Z,4.9
2019-04-14T04:04:01.163Z,4.9
2019-04-14T04:04:51.460Z,4.9
2019-04-14T04:05:41.815Z,4.9
2019-04-14T04:06:31.830Z,4.9
2019-04-14T04:07:21.316Z,4.9
2019-04-14T04:08:11.963Z,4.9
2019-04-14T04:09:02.388Z,4.9
2019-04-14T04:09:52.380Z,4.9
2019-04-14T04:10:42.144Z,4.9
2019-04-14T04:11:32.744Z,4.9
2019-04-14T04:12:23.032Z,4.9
2019-04-14T04:13:13.147Z,4.9
2019-04-14T04:14:02.879Z,4.9
2019-04-14T04:14:53.065Z,4.9
2019-04-14T04:15:41.872Z,4.9
2019-04-14T04:16:33.233Z,4.9
2019-04-14T04:17:23.048Z,4.9
2019-04-14T04:18:13.392Z,4.9
2019-04-14T04:19:18.508Z,5
2019-04-14T04:19:53.424Z,5
2019-04-14T04:20:43.159Z,5
2019-04-14T04:21:33.122Z,5
2019-04-14T04:22:23.592Z,5
2019-04-14T04:23:12.253Z,5
2019-04-14T04:24:02.697Z,5
2019-04-14T04:24:52.649Z,5
2019-04-14T04:25:42.691Z,5.1
2019-04-14T04:26:32.186Z,5.1
2019-04-14T04:27:22.663Z,5.1
2019-04-14T04:28:12.917Z,5.1
2019-04-14T04:29:03.329Z,5.1
2019-04-14T04:29:53.188Z,5.1
2019-04-14T04:30:42.662Z,5.1
2019-04-14T04:31:33.259Z,5.1
2019-04-14T04:32:23.466Z,5.1
2019-04-14T04:33:13.236Z,5.1
2019-04-14T04:34:03.298Z,5.2
2019-04-14T04:34:53.586Z,5.2
2019-04-14T04:35:44.078Z,5.2
2019-04-14T04:36:33.380Z,5.2
2019-04-14T04:37:23.763Z,5.3
2019-04-14T04:38:14.313Z,5.3
2019-04-14T04:39:03.861Z,5.3
2019-04-14T04:39:53.998Z,5.3
2019-04-14T04:40:44.503Z,5.3
2019-04-14T04:41:34.453Z,5.3
2019-04-14T04:42:22.918Z,5.4
2019-04-14T04:43:14.685Z,5.4
2019-04-14T04:44:05.447Z,5.4
2019-04-14T04:44:55.223Z,5.4
2019-04-14T04:45:43.816Z,5.4
2019-04-14T04:46:35.603Z,5.5
2019-04-14T04:47:25.186Z,5.5
2019-04-14T04:48:15.693Z,5.5
2019-04-14T04:49:27.995Z,5.6
2019-04-14T04:49:55.908Z,5.6
2019-04-14T04:50:45.508Z,5.6
2019-04-14T04:51:35.638Z,5.6
2019-04-14T04:52:25.563Z,5.6
2019-04-14T04:53:15.777Z,5.7
2019-04-14T04:54:05.884Z,5.8
2019-04-14T04:54:55.896Z,5.8
2019-04-14T04:55:45.957Z,5.8
2019-04-14T04:56:34.581Z,5.8
2019-04-14T04:57:24.748Z,5.9
2019-04-14T04:58:13.739Z,5.9
2019-04-14T04:59:05.928Z,5.9
2019-04-14T04:59:56.623Z,6
2019-04-14T05:00:54.716Z,6.1
2019-04-14T05:01:35.130Z,6.1
2019-04-14T05:02:26.567Z,6.1
2019-04-14T05:03:16.510Z,6.1
2019-04-14T05:04:05.099Z,6.2
2019-04-14T05:04:55.237Z,6.3
2019-04-14T05:05:45.619Z,6.3
2019-04-14T05:06:35.652Z,6.3
2019-04-14T05:07:25.138Z,6.4
2019-04-14T05:08:15.665Z,6.4
2019-04-14T05:09:05.830Z,6.4
2019-04-14T05:09:56.159Z,6.5
2019-04-14T05:10:45.678Z,6.5
2019-04-14T05:11:36.162Z,6.6
2019-04-14T05:12:26.822Z,6.6
2019-04-14T05:13:16.159Z,6.6
2019-04-14T05:14:07.032Z,6.7
2019-04-14T05:14:56.628Z,6.8
2019-04-14T05:15:47.044Z,6.8
2019-04-14T05:16:37.174Z,6.9
2019-04-14T05:17:27.662Z,6.9
2019-04-14T05:18:16.114Z,6.9
2019-04-14T05:19:36.473Z,7
2019-04-14T05:20:03.696Z,7.1
2019-04-14T05:20:53.764Z,7.1
2019-04-14T05:21:43.301Z,7.2
2019-04-14T05:22:33.765Z,7.3
2019-04-14T05:23:24.050Z,7.3
2019-04-14T05:24:13.602Z,7.3
2019-04-14T05:25:04.096Z,7.4
2019-04-14T05:25:54.056Z,7.5
2019-04-14T05:26:44.316Z,7.5
2019-04-14T05:27:34.046Z,7.6
2019-04-14T05:28:24.393Z,7.7
2019-04-14T05:29:12.941Z,7.8
2019-04-14T05:30:03.188Z,7.8
2019-04-14T05:30:54.576Z,7.9
2019-04-14T05:31:43.093Z,7.9
2019-04-14T05:32:33.291Z,8
2019-04-14T05:33:23.394Z,8.1
2019-04-14T05:34:13.375Z,8.2
2019-04-14T05:35:03.597Z,8.3
2019-04-14T05:35:53.645Z,8.4
2019-04-14T05:36:43.058Z,8.5
2019-04-14T05:37:33.760Z,8.6
2019-04-14T05:38:24.078Z,8.7
2019-04-14T05:39:14.065Z,8.8
2019-04-14T05:40:04.253Z,8.8
2019-04-14T05:40:54.214Z,8.9
2019-04-14T05:42:21.921Z,9
2019-04-14T05:42:49.926Z,9.2
2019-04-14T05:44:01.486Z,9.3
2019-04-14T05:44:29.662Z,9.4
2019-04-14T05:45:19.842Z,9.4
2019-04-14T05:46:10.330Z,9.5
2019-04-14T05:47:00.535Z,9.6
2019-04-14T05:47:50.382Z,9.7
2019-04-14T05:48:40.852Z,9.8
2019-04-14T05:49:54.348Z,9.9
2019-04-14T05:50:20.286Z,10.1
2019-04-14T05:51:09.494Z,10.1
2019-04-14T05:51:59.653Z,10.3
2019-04-14T05:52:49.282Z,10.4
2019-04-14T05:53:39.371Z,10.6
2019-04-14T05:54:30.128Z,10.7
2019-04-14T05:55:19.818Z,10.8
2019-04-14T05:56:09.879Z,10.9
2019-04-14T05:57:00.562Z,11.1
2019-04-14T05:57:50.733Z,11.2
2019-04-14T05:58:40.372Z,11.4
2019-04-14T05:59:31.216Z,11.5
2019-04-14T06:00:21.729Z,11.7
2019-04-14T06:01:09.929Z,11.8
2019-04-14T06:02:00.362Z,12.1
2019-04-14T06:02:51.102Z,12.3
2019-04-14T06:05:02.017Z,12.8
2019-04-14T06:05:50.226Z,13.3
2019-04-14T06:06:40.023Z,13.4
2019-04-14T06:07:30.094Z,13.8
2019-04-14T06:08:20.135Z,14
2019-04-14T06:09:10.211Z,14.3
2019-04-14T06:10:00.528Z,14.6
2019-04-14T06:10:50.604Z,14.9
2019-04-14T06:11:40.388Z,15.2
2019-04-14T06:12:30.701Z,15.5
2019-04-14T06:13:20.516Z,15.8
2019-04-14T06:14:10.558Z,16.1
2019-04-14T06:15:00.615Z,16.4
2019-04-14T06:15:50.938Z,16.8
2019-04-14T06:16:41.005Z,17.2
2019-04-14T06:17:30.553Z,17.6
2019-04-14T06:18:20.866Z,18
2019-04-14T06:19:11.188Z,18.4
2019-04-14T06:20:01.274Z,18.9
2019-04-14T06:20:51.320Z,19.4
2019-04-14T06:21:41.108Z,19.9
2019-04-14T06:22:31.165Z,20.4
2019-04-14T06:23:21.513Z,20.9
2019-04-14T06:24:11.565Z,21.4
2019-04-14T06:25:01.346Z,22
2019-04-14T06:25:51.688Z,22.5
2019-04-14T06:26:41.785Z,23.1
2019-04-14T06:27:31.807Z,23.6
2019-04-14T06:28:21.592Z,24.1
2019-04-14T06:29:11.918Z,24.6
2019-04-14T06:30:01.990Z,15.2
2019-04-14T06:30:51.789Z,16.1
2019-04-14T06:31:42.103Z,41.4
2019-04-14T06:32:32.162Z,47.7
2019-04-14T06:33:21.685Z,48.5
2019-04-14T06:34:11.738Z,47.2
2019-04-14T06:35:02.342Z,45.6
2019-04-14T06:35:52.132Z,44.4
2019-04-14T06:36:42.459Z,43.6
2019-04-14T06:37:32.052Z,43
2019-04-14T06:38:22.119Z,42.6
2019-04-14T06:39:12.168Z,42.3
2019-04-14T06:40:01.957Z,42
2019-04-14T06:40:52.772Z,41.8
2019-04-14T06:41:42.888Z,41.6
2019-04-14T06:42:32.611Z,41.4
2019-04-14T06:43:22.971Z,41.3
2019-04-14T06:44:12.748Z,41.2
2019-04-14T06:45:02.833Z,41.1
2019-04-14T06:45:53.134Z,40.9
2019-04-14T06:46:43.201Z,40.9
2019-04-14T06:47:32.968Z,40.8
2019-04-14T06:48:23.043Z,40.6
2019-04-14T06:49:13.374Z,40.6
2019-04-14T06:50:03.176Z,40.5
2019-04-14T06:50:53.493Z,43.6
2019-04-14T06:51:43.011Z,46.3
2019-04-14T06:52:33.353Z,52.1
2019-04-14T06:53:23.406Z,53.7
2019-04-14T06:54:13.466Z,54.3
2019-04-14T06:55:03.824Z,55.5
2019-04-14T06:55:55.933Z,55.7
2019-04-14T06:56:43.643Z,55.6
2019-04-14T06:57:33.766Z,55.5
2019-04-14T06:58:24.040Z,55.1
2019-04-14T06:59:13.560Z,54.7
2019-04-14T07:00:03.941Z,54.4
2019-04-14T07:00:53.955Z,54.1
2019-04-14T07:01:44.290Z,53.9
2019-04-14T07:02:34.072Z,53.6
2019-04-14T07:05:00.175Z,53.1
2019-04-14T07:05:50.198Z,52.6
2019-04-14T07:06:39.971Z,53.3
2019-04-14T07:07:30.025Z,54.7
2019-04-14T07:08:20.081Z,54.4
2019-04-14T07:09:09.953Z,56.3
2019-04-14T07:10:00.487Z,57.3
2019-04-14T07:10:50.267Z,57.7
2019-04-14T07:11:40.062Z,57.7
2019-04-14T07:12:30.380Z,57.5
2019-04-14T07:13:21.325Z,57.1
2019-04-14T07:14:10.507Z,56.9
2019-04-14T07:15:00.556Z,56.9
2019-04-14T07:15:50.915Z,57.4
2019-04-14T07:16:40.970Z,57.9
2019-04-14T07:17:31.015Z,58.3
2019-04-14T07:18:20.277Z,58.4
2019-04-14T07:19:11.185Z,58.4
2019-04-14T07:20:03.962Z,58.4
2019-04-14T07:20:51.009Z,58.5
2019-04-14T07:21:40.827Z,58.6
2019-04-14T07:22:31.107Z,58.8
2019-04-14T07:23:20.917Z,58.8
2019-04-14T07:24:11.242Z,58.7
2019-04-14T07:25:51.621Z,58.5
2019-04-14T07:26:41.682Z,58.5
2019-04-14T07:28:21.799Z,58.4
2019-04-14T07:29:14.510Z,58.4
2019-04-14T07:30:01.673Z,58.4
2019-04-14T07:30:51.989Z,58.4
2019-04-14T07:31:42.064Z,58.6
2019-04-14T07:32:32.099Z,58.9
2019-04-14T07:33:22.178Z,59.1
2019-04-14T07:34:11.972Z,59.2
2019-04-14T07:35:02.359Z,59.3
2019-04-14T07:35:52.370Z,59.3
2019-04-14T07:36:42.428Z,59.3
2019-04-14T07:37:32.502Z,59.1
2019-04-14T07:38:22.300Z,59
2019-04-14T07:39:12.610Z,59
2019-04-14T07:40:02.181Z,58.9
2019-04-14T07:40:52.807Z,58.5
2019-04-14T07:41:42.527Z,57.9
2019-04-14T07:42:32.856Z,57.3
2019-04-14T07:43:22.914Z,56.9
2019-04-14T07:44:15.721Z,56.7
2019-04-14T07:45:02.786Z,56.6
2019-04-14T07:45:53.118Z,56.5
2019-04-14T07:46:43.184Z,56.4
2019-04-14T07:47:33.236Z,56.4
2019-04-14T07:48:23.029Z,56.3
2019-04-14T07:49:12.803Z,56.1
2019-04-14T07:50:16.295Z,56.1
2019-04-14T07:50:53.468Z,55.9
2019-04-14T07:51:43.366Z,55.9
2019-04-14T07:52:33.340Z,55.8
2019-04-14T07:53:23.380Z,55.8
2019-04-14T07:54:13.445Z,55.6
2019-04-14T07:55:03.223Z,55.6
2019-04-14T07:55:53.865Z,55.5
2019-04-14T07:56:43.398Z,55.5
2019-04-14T07:57:33.407Z,55.4
2019-04-14T07:58:24.022Z,55.4
2019-04-14T07:59:14.089Z,55.4
2019-04-14T08:00:03.880Z,55.4
2019-04-14T08:00:53.652Z,55.4
2019-04-14T08:01:44.264Z,55.4
2019-04-14T08:02:34.057Z,55.3
2019-04-14T08:03:24.120Z,55.3
2019-04-14T08:04:14.172Z,55.3
2019-04-14T08:05:04.530Z,55.1
2019-04-14T08:05:54.279Z,55.1
2019-04-14T08:06:44.647Z,55.1
2019-04-14T08:07:34.687Z,55
2019-04-14T08:08:24.474Z,55
2019-04-14T08:09:14.806Z,55.1
2019-04-14T08:10:04.874Z,55.2
2019-04-14T08:10:54.656Z,55.2
2019-04-14T08:11:44.745Z,55.1
2019-04-14T08:12:36.812Z,55.1
2019-04-14T08:13:24.834Z,55.1
2019-04-14T08:14:15.190Z,55.2
2019-04-14T08:15:04.972Z,55.2
2019-04-14T08:15:54.747Z,54.6
2019-04-14T08:16:45.364Z,52.9
2019-04-14T08:17:35.421Z,50.7
2019-04-14T08:18:25.499Z,48.6
2019-04-14T08:19:15.544Z,47.4
2019-04-14T08:20:05.364Z,47.2
2019-04-14T08:20:55.672Z,46.8
2019-04-14T08:21:45.439Z,45.8
2019-04-14T08:22:35.826Z,45.2
2019-04-14T08:23:25.566Z,45.4
2019-04-14T08:24:15.906Z,45.9
2019-04-14T08:25:05.149Z,46.6
2019-04-14T08:25:56.022Z,47.1
2019-04-14T08:26:46.144Z,47.6
2019-04-14T08:27:36.149Z,47.8
2019-04-14T08:28:26.211Z,47.4
2019-04-14T08:29:16.013Z,47.4
2019-04-14T08:30:06.350Z,47.8
2019-04-14T08:30:56.453Z,48.4
2019-04-14T08:31:46.457Z,48.9
2019-04-14T08:32:36.551Z,49.3
2019-04-14T08:33:26.582Z,49.6
2019-04-14T08:34:16.629Z,49.6
2019-04-14T08:35:06.433Z,49.4
2019-04-14T08:35:56.771Z,49.4
2019-04-14T08:36:46.831Z,49.6
2019-04-14T08:37:36.885Z,49.7
2019-04-14T08:38:26.975Z,49.8
2019-04-14T08:39:16.717Z,49.8
2019-04-14T08:40:07.115Z,49.8
2019-04-14T08:40:56.843Z,49.7
2019-04-14T08:41:47.183Z,49.5
2019-04-14T08:42:37.247Z,49.4
2019-04-14T08:43:27.054Z,49.4
2019-04-14T08:44:17.352Z,49.9
2019-04-14T08:45:07.477Z,50.6
2019-04-14T08:45:57.221Z,51.5
2019-04-14T08:46:47.279Z,52.2
2019-04-14T08:47:37.410Z,52.5
2019-04-14T08:48:27.678Z,52.4
2019-04-14T08:49:17.729Z,52.1
2019-04-14T08:50:07.820Z,51.6
2019-04-14T08:50:57.859Z,51.4
2019-04-14T08:51:47.655Z,51.3
2019-04-14T08:52:37.707Z,51.4
2019-04-14T08:53:28.034Z,51.5
2019-04-14T08:54:17.832Z,51.6
2019-04-14T08:55:07.908Z,51.6
2019-04-14T08:55:58.222Z,51.6
2019-04-14T08:56:47.759Z,51.6
2019-04-14T08:57:38.361Z,51.5
2019-04-14T08:58:28.127Z,51.4
2019-04-14T08:59:18.225Z,51.6
2019-04-14T09:00:58.319Z,52.1
2019-04-14T09:01:48.676Z,52.2
2019-04-14T09:02:38.444Z,52.2
2019-04-14T09:03:28.496Z,52.3
2019-04-14T09:04:18.829Z,52.8
2019-04-14T09:05:08.904Z,53.4
2019-04-14T09:05:58.406Z,54.1
2019-04-14T09:06:48.755Z,54.6
2019-04-14T09:07:38.803Z,55
2019-04-14T09:08:28.856Z,55.3
2019-04-14T09:09:18.931Z,55.3
2019-04-14T09:10:09.068Z,55.1
2019-04-14T09:10:59.316Z,54.8
2019-04-14T09:11:49.383Z,54.4
2019-04-14T09:12:39.183Z,54.3
2019-04-14T09:13:29.571Z,54.3
2019-04-14T09:14:19.293Z,54.6
2019-04-14T09:15:09.396Z,54.8
2019-04-14T09:15:59.438Z,54.9
2019-04-14T09:16:49.742Z,54.8
2019-04-14T09:17:39.546Z,55
2019-04-14T09:18:29.930Z,55.2
2019-04-14T09:19:19.698Z,55.2
2019-04-14T09:20:09.778Z,55.1
2019-04-14T09:20:59.508Z,54.8
2019-04-14T09:21:50.104Z,54.6
2019-04-14T09:22:39.960Z,54.3
2019-04-14T09:23:30.243Z,54.2
2019-04-14T09:24:20.013Z,54.1
2019-04-14T09:25:10.375Z,54
2019-04-14T09:26:00.427Z,53.9
2019-04-14T09:26:50.198Z,53.9
2019-04-14T09:27:40.270Z,53.8
2019-04-14T09:28:30.595Z,53.8
2019-04-14T09:29:20.667Z,53.7
2019-04-14T09:30:10.726Z,53.6
2019-04-14T09:31:00.787Z,53.5
2019-04-14T09:31:50.857Z,53.4
2019-04-14T09:32:40.952Z,53.3
2019-04-14T09:33:30.755Z,53.3
2019-04-14T09:34:21.029Z,53.2
2019-04-14T09:35:10.874Z,53.1
2019-04-14T09:36:01.146Z,53.1
2019-04-14T09:36:51.216Z,53.2
2019-04-14T09:37:41.257Z,53.1
2019-04-14T09:38:31.340Z,53.1
2019-04-14T09:39:21.387Z,52.9
2019-04-14T09:40:11.164Z,52.2
2019-04-14T09:41:01.512Z,51.5
2019-04-14T09:41:51.289Z,51.1
2019-04-14T09:42:41.096Z,50.8
2019-04-14T09:43:31.426Z,50.6
2019-04-14T09:44:21.759Z,50.6
2019-04-14T09:45:11.537Z,50.5
2019-04-14T09:46:01.884Z,50.4
2019-04-14T09:46:51.406Z,50.3
2019-04-14T09:47:41.774Z,50.1
2019-04-14T09:48:31.519Z,50.1
2019-04-14T09:49:21.851Z,49.9
2019-04-14T09:50:11.911Z,49.9
2019-04-14T09:51:06.444Z,49.8
2019-04-14T09:51:52.294Z,49.8
2019-04-14T09:52:42.119Z,49.8
2019-04-14T09:53:32.149Z,49.8
2019-04-14T09:54:22.207Z,49.8
2019-04-14T09:55:12.549Z,49.7
2019-04-14T09:56:02.613Z,49.7
2019-04-14T09:56:52.449Z,49.7
2019-04-14T09:57:42.280Z,49.6
2019-04-14T09:58:32.785Z,49.6
2019-04-14T09:59:22.868Z,49.6
2019-04-14T10:00:12.633Z,49.5
2019-04-14T10:01:03.018Z,49.4
2019-04-14T10:01:52.752Z,49.4
2019-04-14T10:02:42.838Z,49.3
2019-04-14T10:03:32.989Z,49.3
2019-04-14T10:05:59.828Z,49.1
2019-04-14T10:06:50.002Z,49.1
2019-04-14T10:07:39.973Z,48.9
2019-04-14T10:08:29.903Z,48.9
2019-04-14T10:09:20.250Z,48.8
2019-04-14T10:10:10.380Z,48.8
2019-04-14T10:11:00.084Z,48.7
2019-04-14T10:11:57.483Z,48.5
2019-04-14T10:12:40.482Z,47.9
2019-04-14T10:13:30.528Z,47.6
2019-04-14T10:14:20.048Z,48.1
2019-04-14T10:15:10.649Z,48.2
2019-04-14T10:16:00.460Z,48.1
2019-04-14T10:16:50.763Z,47.9
2019-04-14T10:17:40.323Z,47.9
2019-04-14T10:18:30.897Z,47.3
2019-04-14T10:19:20.677Z,47
2019-04-14T10:20:11.015Z,46.8
2019-04-14T10:21:01.067Z,46.6
2019-04-14T10:21:50.852Z,46.3
2019-04-14T10:22:40.950Z,46.1
2019-04-14T10:23:31.252Z,45.8
2019-04-14T10:24:21.046Z,45.3
2019-04-14T10:25:11.392Z,46.1
2019-04-14T10:26:01.456Z,46.1
2019-04-14T10:26:51.502Z,45.9
2019-04-14T10:27:41.589Z,45.8
2019-04-14T10:28:31.622Z,45.3
2019-04-14T10:29:21.704Z,44.8
2019-04-14T10:30:11.790Z,44.4
2019-04-14T10:31:01.808Z,44
2019-04-14T10:31:51.597Z,43.6
2019-04-14T10:32:41.926Z,43.3
2019-04-14T10:33:31.728Z,42.9
2019-04-14T10:34:21.787Z,42.7
2019-04-14T10:35:11.878Z,42.4
2019-04-14T10:36:01.916Z,42.1
2019-04-14T10:36:52.248Z,41.8
2019-04-14T10:37:42.097Z,41.6
2019-04-14T10:38:32.366Z,41.3
2019-04-14T10:39:21.863Z,41.1
2019-04-14T10:40:12.211Z,40.9
2019-04-14T10:41:02.568Z,40.7
2019-04-14T10:41:52.062Z,40.5
2019-04-14T10:42:42.663Z,40.3
2019-04-14T10:43:32.732Z,40.2
2019-04-14T10:44:22.514Z,40.1
2019-04-14T10:45:12.580Z,40
2019-04-14T10:46:02.936Z,40.9
2019-04-14T10:46:52.988Z,38.6
2019-04-14T10:47:43.019Z,40
2019-04-14T10:48:32.837Z,38.8
2019-04-14T10:49:23.172Z,38
2019-04-14T10:50:13.211Z,37.8
2019-04-14T10:51:03.279Z,37.9
2019-04-14T10:51:53.068Z,37.9
2019-04-14T10:52:42.856Z,37.9
2019-04-14T10:53:33.479Z,37.9
2019-04-14T10:54:22.985Z,37.9
2019-04-14T10:55:13.601Z,37.9
2019-04-14T10:56:03.375Z,37.9
2019-04-14T10:56:53.441Z,37.8
2019-04-14T10:57:43.763Z,37.5
2019-04-14T10:58:33.536Z,37.5
2019-04-14T10:59:23.893Z,37.6
2019-04-14T11:00:13.686Z,37.6
2019-04-14T11:01:04.018Z,37.6
2019-04-14T11:01:54.110Z,37.7
2019-04-14T11:02:43.851Z,37.7
2019-04-14T11:03:34.250Z,37.7
2019-04-14T11:04:23.962Z,37.7
2019-04-14T11:05:14.314Z,37.6
2019-04-14T11:06:04.112Z,37.6
2019-04-14T11:06:54.157Z,37.6
2019-04-14T11:07:44.244Z,37.7
2019-04-14T11:08:34.303Z,37.8
2019-04-14T11:09:24.345Z,37.8
2019-04-14T11:10:14.394Z,37.8
2019-04-14T11:11:04.726Z,37.9
2019-04-14T11:11:54.793Z,37.9
2019-04-14T11:12:44.864Z,37.9
2019-04-14T11:13:34.969Z,38
2019-04-14T11:14:24.706Z,38.1
2019-04-14T11:15:16.994Z,38.1
2019-04-14T11:16:05.104Z,38.2
2019-04-14T11:16:54.606Z,38.3
2019-04-14T11:17:45.229Z,38.4
2019-04-14T11:18:35.281Z,38.4
2019-04-14T11:19:25.346Z,38.6
2019-04-14T11:20:15.146Z,38.6
2019-04-14T11:21:05.197Z,38.6
2019-04-14T11:21:55.238Z,38.6
2019-04-14T11:22:45.336Z,38.6
2019-04-14T11:23:35.096Z,38.6
2019-04-14T11:24:25.478Z,38.6
2019-04-14T11:25:15.781Z,38.7
2019-04-14T11:26:05.639Z,38.7
2019-04-14T11:26:55.913Z,38.7
2019-04-14T11:27:45.955Z,38.1
2019-04-14T11:28:35.795Z,37.8
2019-04-14T11:29:26.076Z,37.6
2019-04-14T11:30:16.123Z,37.6
2019-04-14T11:31:05.940Z,37.6
2019-04-14T11:31:56.247Z,37.6
2019-04-14T11:32:46.046Z,37.6
2019-04-14T11:33:36.387Z,37.6
2019-04-14T11:34:26.434Z,37.6
2019-04-14T11:35:18.327Z,37.9
2019-04-14T11:36:06.581Z,38.2
2019-04-14T11:36:56.355Z,38.4
2019-04-14T11:37:46.418Z,38.9
2019-04-14T11:38:36.544Z,39.6
2019-04-14T11:39:26.541Z,40.3
2019-04-14T11:40:16.858Z,40.8
2019-04-14T11:41:06.948Z,41.3
2019-04-14T11:41:57.016Z,41.6
2019-04-14T11:42:54.011Z,41.9
2019-04-14T11:43:36.862Z,42.2
2019-04-14T11:44:26.689Z,42.4
2019-04-14T11:45:16.944Z,42.7
2019-04-14T11:46:07.060Z,43
2019-04-14T11:46:57.387Z,43.3
2019-04-14T11:47:47.144Z,43.5
2019-04-14T11:48:37.470Z,43.8
2019-04-14T11:49:27.529Z,44
2019-04-14T11:50:17.607Z,43.8
2019-04-14T11:51:07.367Z,43.4
2019-04-14T11:51:57.722Z,42.8
2019-04-14T11:52:47.779Z,41.9
2019-04-14T11:53:37.830Z,41.4
2019-04-14T11:54:27.928Z,41.4
2019-04-14T11:55:17.421Z,41.9
2019-04-14T11:56:08.091Z,42.4
2019-04-14T11:56:58.081Z,42.6
2019-04-14T11:57:47.969Z,42.4
2019-04-14T11:58:38.229Z,42.1
2019-04-14T11:59:27.436Z,41.8
2019-04-14T12:00:18.345Z,41.5
2019-04-14T12:01:08.098Z,41.4
2019-04-14T12:01:57.923Z,41.4
2019-04-14T12:02:48.266Z,41.4
2019-04-14T12:03:38.608Z,41.7
2019-04-14T12:05:59.619Z,42.7
2019-04-14T12:06:50.649Z,42.5
2019-04-14T12:07:40.012Z,42.3
2019-04-14T12:08:30.328Z,42
2019-04-14T12:09:20.371Z,41.9
2019-04-14T12:10:09.916Z,41.8
2019-04-14T12:11:00.249Z,41.7
2019-04-14T12:11:50.566Z,41.7
2019-04-14T12:12:40.106Z,41.6
2019-04-14T12:13:29.938Z,41.6
2019-04-14T12:14:20.504Z,41.4
2019-04-14T12:15:17.923Z,41.3
2019-04-14T12:16:00.340Z,41.3
2019-04-14T12:16:51.117Z,41.2
2019-04-14T12:17:40.459Z,41.1
2019-04-14T12:18:30.532Z,41
2019-04-14T12:19:20.865Z,40.9
2019-04-14T12:20:11.161Z,40.8
2019-04-14T12:21:00.992Z,40.8
2019-04-14T12:21:51.047Z,40.8
2019-04-14T12:22:40.825Z,40.7
2019-04-14T12:23:31.214Z,40.6
2019-04-14T12:24:20.978Z,40.6
2019-04-14T12:25:11.298Z,40.4
2019-04-14T12:26:07.282Z,40.3
2019-04-14T12:26:51.142Z,39.7
2019-04-14T12:27:42.507Z,39.8
2019-04-14T12:28:32.242Z,40.6
2019-04-14T12:29:24.099Z,40.8
2019-04-14T12:30:13.627Z,40.8
2019-04-14T12:31:03.970Z,40.7
2019-04-14T12:31:53.570Z,40.6
2019-04-14T12:32:41.846Z,40.3
2019-04-14T12:33:31.816Z,40.2
2019-04-14T12:35:11.764Z,38.9
2019-04-14T12:36:02.109Z,40
2019-04-14T12:36:52.369Z,39.9
2019-04-14T12:37:42.214Z,39.7
2019-04-14T12:38:32.271Z,39.8
2019-04-14T12:39:21.519Z,39.8
2019-04-14T12:40:11.859Z,39.8
2019-04-14T12:41:06.664Z,39.8
2019-04-14T12:41:52.511Z,39.9
2019-04-14T12:42:42.299Z,39.9
2019-04-14T12:43:32.360Z,39.9
2019-04-14T12:44:22.698Z,39.9
2019-04-14T12:45:12.988Z,39.9
2019-04-14T12:46:02.314Z,39.9
2019-04-14T12:46:52.872Z,40
2019-04-14T12:47:42.944Z,40
2019-04-14T12:48:32.996Z,40.1
2019-04-14T12:49:23.136Z,40.2
2019-04-14T12:50:13.113Z,40.3